sensor_id;sensor_type;location;lat;lon;timestamp;P1;durP1;ratioP1;P2;durP2;ratioP2
8538;SDS011;4307;53.868;11.680;2023-04-24T00:00:02;3.13;;;2.83;;
8538;SDS011;4307;53.868;11.680;2023-04-24T00:02:30;3.10;;;2.83;;
8538;SDS011;4307;53.868;11.680;2023-04-24T00:04:57;3.80;;;2.97;;
8538;SDS011;4307;53.868;11.680;2023-04-24T00:07:28;4.13;;;3.10;;
8538;SDS011;4307;53.868;11.680;2023-04-24T00:09:55;3.67;;;3.00;;
8538;SDS011;4307;53.868;11.680;2023-04-24T00:12:22;3.27;;;2.97;;
8538;SDS011;4307;53.868;11.680;2023-04-24T00:14:49;3.43;;;3.00;;
8538;SDS011;4307;53.868;11.680;2023-04-24T00:17:16;4.87;;;2.90;;
8538;SDS011;4307;53.868;11.680;2023-04-24T00:19:44;3.37;;;2.77;;
8538;SDS011;4307;53.868;11.680;2023-04-24T00:22:11;2.90;;;2.70;;
8538;SDS011;4307;53.868;11.680;2023-04-24T00:24:40;2.33;;;2.23;;
8538;SDS011;4307;53.868;11.680;2023-04-24T00:27:07;3.20;;;2.83;;
8538;SDS011;4307;53.868;11.680;2023-04-24T00:29:34;2.57;;;2.37;;
8538;SDS011;4307;53.868;11.680;2023-04-24T00:32:01;5.60;;;3.00;;
8538;SDS011;4307;53.868;11.680;2023-04-24T00:34:27;3.20;;;2.50;;
8538;SDS011;4307;53.868;11.680;2023-04-24T00:36:54;3.17;;;2.70;;
8538;SDS011;4307;53.868;11.680;2023-04-24T00:39:20;4.37;;;3.00;;
8538;SDS011;4307;53.868;11.680;2023-04-24T00:41:49;3.07;;;2.87;;
8538;SDS011;4307;53.868;11.680;2023-04-24T00:44:17;3.10;;;2.90;;
8538;SDS011;4307;53.868;11.680;2023-04-24T00:46:44;3.30;;;2.93;;
8538;SDS011;4307;53.868;11.680;2023-04-24T00:49:11;3.03;;;2.70;;
8538;SDS011;4307;53.868;11.680;2023-04-24T00:51:39;3.27;;;2.50;;
8538;SDS011;4307;53.868;11.680;2023-04-24T00:54:10;4.50;;;2.93;;
8538;SDS011;4307;53.868;11.680;2023-04-24T00:56:37;3.13;;;2.93;;
8538;SDS011;4307;53.868;11.680;2023-04-24T00:59:05;2.70;;;2.50;;
8538;SDS011;4307;53.868;11.680;2023-04-24T01:01:32;3.33;;;3.00;;
8538;SDS011;4307;53.868;11.680;2023-04-24T01:03:59;2.70;;;2.50;;
8538;SDS011;4307;53.868;11.680;2023-04-24T01:06:27;3.27;;;2.97;;
8538;SDS011;4307;53.868;11.680;2023-04-24T01:08:56;3.03;;;2.73;;
8538;SDS011;4307;53.868;11.680;2023-04-24T01:11:24;2.77;;;2.57;;
8538;SDS011;4307;53.868;11.680;2023-04-24T01:13:51;3.87;;;2.60;;
8538;SDS011;4307;53.868;11.680;2023-04-24T01:16:19;4.43;;;3.10;;
8538;SDS011;4307;53.868;11.680;2023-04-24T01:18:46;3.40;;;3.10;;
8538;SDS011;4307;53.868;11.680;2023-04-24T01:21:13;3.50;;;3.10;;
8538;SDS011;4307;53.868;11.680;2023-04-24T01:23:43;4.30;;;2.67;;
8538;SDS011;4307;53.868;11.680;2023-04-24T01:26:09;4.33;;;2.87;;
8538;SDS011;4307;53.868;11.680;2023-04-24T01:28:36;3.57;;;3.00;;
8538;SDS011;4307;53.868;11.680;2023-04-24T01:31:03;3.50;;;3.20;;
8538;SDS011;4307;53.868;11.680;2023-04-24T01:33:30;3.40;;;3.10;;
8538;SDS011;4307;53.868;11.680;2023-04-24T01:35:57;3.33;;;3.10;;
8538;SDS011;4307;53.868;11.680;2023-04-24T01:38:24;4.23;;;3.67;;
8538;SDS011;4307;53.868;11.680;2023-04-24T01:40:53;3.80;;;3.40;;
8538;SDS011;4307;53.868;11.680;2023-04-24T01:43:19;3.77;;;3.47;;
8538;SDS011;4307;53.868;11.680;2023-04-24T01:45:46;3.70;;;3.27;;
8538;SDS011;4307;53.868;11.680;2023-04-24T01:48:13;3.30;;;3.00;;
8538;SDS011;4307;53.868;11.680;2023-04-24T01:50:40;5.00;;;3.30;;
8538;SDS011;4307;53.868;11.680;2023-04-24T01:53:07;3.73;;;3.30;;
8538;SDS011;4307;53.868;11.680;2023-04-24T01:55:33;4.83;;;3.57;;
8538;SDS011;4307;53.868;11.680;2023-04-24T01:58:02;4.57;;;3.80;;
8538;SDS011;4307;53.868;11.680;2023-04-24T02:00:29;5.00;;;3.37;;
8538;SDS011;4307;53.868;11.680;2023-04-24T02:02:56;3.50;;;3.20;;
8538;SDS011;4307;53.868;11.680;2023-04-24T02:05:23;4.03;;;3.50;;
8538;SDS011;4307;53.868;11.680;2023-04-24T02:07:49;6.93;;;3.40;;
8538;SDS011;4307;53.868;11.680;2023-04-24T02:10:16;3.63;;;3.33;;
8538;SDS011;4307;53.868;11.680;2023-04-24T02:12:43;3.90;;;3.60;;
8538;SDS011;4307;53.868;11.680;2023-04-24T02:15:11;3.80;;;3.40;;
8538;SDS011;4307;53.868;11.680;2023-04-24T02:17:38;4.10;;;3.70;;
8538;SDS011;4307;53.868;11.680;2023-04-24T02:20:05;4.20;;;3.60;;
8538;SDS011;4307;53.868;11.680;2023-04-24T02:22:33;3.43;;;3.13;;
8538;SDS011;4307;53.868;11.680;2023-04-24T02:25:00;3.57;;;3.27;;
8538;SDS011;4307;53.868;11.680;2023-04-24T02:27:26;4.87;;;3.70;;
8538;SDS011;4307;53.868;11.680;2023-04-24T02:29:53;4.97;;;3.40;;
8538;SDS011;4307;53.868;11.680;2023-04-24T02:32:21;4.23;;;3.83;;
8538;SDS011;4307;53.868;11.680;2023-04-24T02:34:48;4.47;;;3.40;;
8538;SDS011;4307;53.868;11.680;2023-04-24T02:37:15;4.53;;;3.50;;
8538;SDS011;4307;53.868;11.680;2023-04-24T02:39:41;4.73;;;3.50;;
8538;SDS011;4307;53.868;11.680;2023-04-24T02:42:08;5.27;;;4.37;;
8538;SDS011;4307;53.868;11.680;2023-04-24T02:44:35;4.23;;;3.93;;
8538;SDS011;4307;53.868;11.680;2023-04-24T02:47:01;4.70;;;3.70;;
8538;SDS011;4307;53.868;11.680;2023-04-24T02:49:30;4.10;;;3.70;;
8538;SDS011;4307;53.868;11.680;2023-04-24T02:51:56;4.50;;;3.70;;
8538;SDS011;4307;53.868;11.680;2023-04-24T02:54:23;6.07;;;3.93;;
8538;SDS011;4307;53.868;11.680;2023-04-24T02:56:49;3.90;;;3.50;;
8538;SDS011;4307;53.868;11.680;2023-04-24T02:59:16;4.23;;;3.83;;
8538;SDS011;4307;53.868;11.680;2023-04-24T03:01:43;3.97;;;3.57;;
8538;SDS011;4307;53.868;11.680;2023-04-24T03:04:09;5.30;;;3.50;;
8538;SDS011;4307;53.868;11.680;2023-04-24T03:06:37;5.43;;;3.67;;
8538;SDS011;4307;53.868;11.680;2023-04-24T03:09:04;5.00;;;3.90;;
8538;SDS011;4307;53.868;11.680;2023-04-24T03:11:31;4.20;;;3.57;;
8538;SDS011;4307;53.868;11.680;2023-04-24T03:13:57;5.20;;;4.67;;
8538;SDS011;4307;53.868;11.680;2023-04-24T03:16:24;3.87;;;3.50;;
8538;SDS011;4307;53.868;11.680;2023-04-24T03:18:51;3.37;;;3.07;;
8538;SDS011;4307;53.868;11.680;2023-04-24T03:21:17;4.37;;;3.97;;
8538;SDS011;4307;53.868;11.680;2023-04-24T03:23:45;4.20;;;3.80;;
8538;SDS011;4307;53.868;11.680;2023-04-24T03:26:12;3.90;;;3.60;;
8538;SDS011;4307;53.868;11.680;2023-04-24T03:28:38;4.50;;;3.70;;
8538;SDS011;4307;53.868;11.680;2023-04-24T03:31:05;4.70;;;3.80;;
8538;SDS011;4307;53.868;11.680;2023-04-24T03:33:32;4.50;;;4.07;;
8538;SDS011;4307;53.868;11.680;2023-04-24T03:35:59;4.67;;;4.27;;
8538;SDS011;4307;53.868;11.680;2023-04-24T03:38:25;4.90;;;4.33;;
8538;SDS011;4307;53.868;11.680;2023-04-24T03:40:53;6.37;;;4.37;;
8538;SDS011;4307;53.868;11.680;2023-04-24T03:43:20;4.70;;;4.10;;
8538;SDS011;4307;53.868;11.680;2023-04-24T03:45:47;4.97;;;4.00;;
8538;SDS011;4307;53.868;11.680;2023-04-24T03:48:13;5.43;;;4.40;;
8538;SDS011;4307;53.868;11.680;2023-04-24T03:50:40;4.50;;;4.07;;
8538;SDS011;4307;53.868;11.680;2023-04-24T03:53:07;4.40;;;3.73;;
8538;SDS011;4307;53.868;11.680;2023-04-24T03:55:33;4.47;;;4.07;;
8538;SDS011;4307;53.868;11.680;2023-04-24T03:58:01;7.07;;;4.27;;
8538;SDS011;4307;53.868;11.680;2023-04-24T04:00:28;6.03;;;4.50;;
8538;SDS011;4307;53.868;11.680;2023-04-24T04:02:58;4.87;;;4.20;;
8538;SDS011;4307;53.868;11.680;2023-04-24T04:05:24;5.33;;;4.20;;
8538;SDS011;4307;53.868;11.680;2023-04-24T04:07:51;5.70;;;4.23;;
8538;SDS011;4307;53.868;11.680;2023-04-24T04:10:18;5.00;;;4.27;;
8538;SDS011;4307;53.868;11.680;2023-04-24T04:12:44;4.50;;;4.10;;
8538;SDS011;4307;53.868;11.680;2023-04-24T04:15:12;4.77;;;3.90;;
8538;SDS011;4307;53.868;11.680;2023-04-24T04:17:39;4.60;;;4.20;;
8538;SDS011;4307;53.868;11.680;2023-04-24T04:20:06;5.83;;;4.60;;
8538;SDS011;4307;53.868;11.680;2023-04-24T04:22:35;5.93;;;4.70;;
8538;SDS011;4307;53.868;11.680;2023-04-24T04:25:02;5.67;;;4.50;;
8538;SDS011;4307;53.868;11.680;2023-04-24T04:27:29;5.93;;;4.87;;
8538;SDS011;4307;53.868;11.680;2023-04-24T04:29:57;4.53;;;4.10;;
8538;SDS011;4307;53.868;11.680;2023-04-24T04:32:27;4.30;;;3.90;;
8538;SDS011;4307;53.868;11.680;2023-04-24T04:34:54;5.00;;;4.60;;
8538;SDS011;4307;53.868;11.680;2023-04-24T04:37:20;5.27;;;4.77;;
8538;SDS011;4307;53.868;11.680;2023-04-24T04:39:47;5.00;;;4.20;;
8538;SDS011;4307;53.868;11.680;2023-04-24T04:42:14;4.90;;;4.47;;
8538;SDS011;4307;53.868;11.680;2023-04-24T04:44:40;5.07;;;4.57;;
8538;SDS011;4307;53.868;11.680;2023-04-24T04:47:07;5.10;;;4.53;;
8538;SDS011;4307;53.868;11.680;2023-04-24T04:49:37;4.97;;;4.13;;
8538;SDS011;4307;53.868;11.680;2023-04-24T04:52:04;4.77;;;4.27;;
8538;SDS011;4307;53.868;11.680;2023-04-24T04:54:31;5.17;;;4.27;;
8538;SDS011;4307;53.868;11.680;2023-04-24T04:56:59;4.90;;;4.40;;
8538;SDS011;4307;53.868;11.680;2023-04-24T04:59:25;5.07;;;4.57;;
8538;SDS011;4307;53.868;11.680;2023-04-24T05:01:52;7.83;;;4.37;;
8538;SDS011;4307;53.868;11.680;2023-04-24T05:04:19;5.17;;;4.40;;
8538;SDS011;4307;53.868;11.680;2023-04-24T05:06:47;5.77;;;4.17;;
8538;SDS011;4307;53.868;11.680;2023-04-24T05:09:16;5.60;;;4.47;;
8538;SDS011;4307;53.868;11.680;2023-04-24T05:11:42;4.73;;;4.33;;
8538;SDS011;4307;53.868;11.680;2023-04-24T05:14:09;5.00;;;4.50;;
8538;SDS011;4307;53.868;11.680;2023-04-24T05:16:37;3.97;;;3.67;;
8538;SDS011;4307;53.868;11.680;2023-04-24T05:19:04;4.70;;;4.10;;
8538;SDS011;4307;53.868;11.680;2023-04-24T05:21:31;4.40;;;4.00;;
8538;SDS011;4307;53.868;11.680;2023-04-24T05:23:59;4.17;;;3.73;;
8538;SDS011;4307;53.868;11.680;2023-04-24T05:26:26;5.17;;;3.50;;
8538;SDS011;4307;53.868;11.680;2023-04-24T05:28:53;3.40;;;3.10;;
8538;SDS011;4307;53.868;11.680;2023-04-24T05:31:19;3.70;;;3.40;;
8538;SDS011;4307;53.868;11.680;2023-04-24T05:33:46;3.90;;;3.43;;
8538;SDS011;4307;53.868;11.680;2023-04-24T05:36:13;3.40;;;3.10;;
8538;SDS011;4307;53.868;11.680;2023-04-24T05:38:39;3.70;;;3.40;;
8538;SDS011;4307;53.868;11.680;2023-04-24T05:41:08;3.43;;;3.13;;
8538;SDS011;4307;53.868;11.680;2023-04-24T05:43:34;3.57;;;3.20;;
8538;SDS011;4307;53.868;11.680;2023-04-24T05:46:01;3.50;;;3.20;;
8538;SDS011;4307;53.868;11.680;2023-04-24T05:48:27;6.97;;;3.37;;
8538;SDS011;4307;53.868;11.680;2023-04-24T05:50:55;3.67;;;3.37;;
8538;SDS011;4307;53.868;11.680;2023-04-24T05:53:21;3.60;;;3.20;;
8538;SDS011;4307;53.868;11.680;2023-04-24T05:55:48;3.70;;;2.93;;
8538;SDS011;4307;53.868;11.680;2023-04-24T05:58:16;3.10;;;2.80;;
8538;SDS011;4307;53.868;11.680;2023-04-24T06:00:43;2.80;;;2.60;;
8538;SDS011;4307;53.868;11.680;2023-04-24T06:03:11;3.00;;;2.73;;
8538;SDS011;4307;53.868;11.680;2023-04-24T06:05:38;2.70;;;2.50;;
8538;SDS011;4307;53.868;11.680;2023-04-24T06:08:04;2.10;;;2.00;;
8538;SDS011;4307;53.868;11.680;2023-04-24T06:10:31;2.13;;;1.93;;
8538;SDS011;4307;53.868;11.680;2023-04-24T06:12:58;2.00;;;1.90;;
8538;SDS011;4307;53.868;11.680;2023-04-24T06:15:28;2.30;;;2.10;;
8538;SDS011;4307;53.868;11.680;2023-04-24T06:17:56;1.90;;;1.80;;
8538;SDS011;4307;53.868;11.680;2023-04-24T06:20:23;1.90;;;1.80;;
8538;SDS011;4307;53.868;11.680;2023-04-24T06:22:49;1.63;;;1.53;;
8538;SDS011;4307;53.868;11.680;2023-04-24T06:25:16;1.87;;;1.77;;
8538;SDS011;4307;53.868;11.680;2023-04-24T06:27:44;2.10;;;1.90;;
8538;SDS011;4307;53.868;11.680;2023-04-24T06:30:11;2.00;;;1.90;;
8538;SDS011;4307;53.868;11.680;2023-04-24T06:32:39;1.50;;;1.40;;
8538;SDS011;4307;53.868;11.680;2023-04-24T06:35:06;2.00;;;1.80;;
8538;SDS011;4307;53.868;11.680;2023-04-24T06:37:34;2.27;;;1.90;;
8538;SDS011;4307;53.868;11.680;2023-04-24T06:40:01;2.07;;;1.97;;
8538;SDS011;4307;53.868;11.680;2023-04-24T06:42:28;2.17;;;1.97;;
8538;SDS011;4307;53.868;11.680;2023-04-24T06:44:55;2.10;;;1.90;;
8538;SDS011;4307;53.868;11.680;2023-04-24T06:47:21;2.17;;;1.57;;
8538;SDS011;4307;53.868;11.680;2023-04-24T06:49:49;1.87;;;1.77;;
8538;SDS011;4307;53.868;11.680;2023-04-24T06:52:17;1.97;;;1.87;;
8538;SDS011;4307;53.868;11.680;2023-04-24T06:54:44;3.27;;;2.27;;
8538;SDS011;4307;53.868;11.680;2023-04-24T06:57:11;3.60;;;2.43;;
8538;SDS011;4307;53.868;11.680;2023-04-24T06:59:37;2.30;;;2.10;;
8538;SDS011;4307;53.868;11.680;2023-04-24T07:02:04;4.37;;;2.30;;
8538;SDS011;4307;53.868;11.680;2023-04-24T07:04:31;3.03;;;2.30;;
8538;SDS011;4307;53.868;11.680;2023-04-24T07:06:59;2.23;;;2.03;;
8538;SDS011;4307;53.868;11.680;2023-04-24T07:09:26;2.57;;;2.30;;
8538;SDS011;4307;53.868;11.680;2023-04-24T07:11:53;3.50;;;2.43;;
8538;SDS011;4307;53.868;11.680;2023-04-24T07:14:22;1.83;;;1.73;;
8538;SDS011;4307;53.868;11.680;2023-04-24T07:16:49;3.33;;;2.30;;
8538;SDS011;4307;53.868;11.680;2023-04-24T07:19:16;2.40;;;2.20;;
8538;SDS011;4307;53.868;11.680;2023-04-24T07:21:42;2.63;;;2.00;;
8538;SDS011;4307;53.868;11.680;2023-04-24T07:24:11;1.87;;;1.77;;
8538;SDS011;4307;53.868;11.680;2023-04-24T07:26:38;2.03;;;1.80;;
8538;SDS011;4307;53.868;11.680;2023-04-24T07:29:05;2.07;;;1.90;;
8538;SDS011;4307;53.868;11.680;2023-04-24T07:31:32;1.80;;;1.70;;
8538;SDS011;4307;53.868;11.680;2023-04-24T07:33:58;1.67;;;1.57;;
8538;SDS011;4307;53.868;11.680;2023-04-24T07:36:25;1.27;;;1.23;;
8538;SDS011;4307;53.868;11.680;2023-04-24T07:38:52;3.30;;;1.93;;
8538;SDS011;4307;53.868;11.680;2023-04-24T07:41:21;1.73;;;1.63;;
8538;SDS011;4307;53.868;11.680;2023-04-24T07:43:49;1.63;;;1.53;;
8538;SDS011;4307;53.868;11.680;2023-04-24T07:46:15;2.10;;;1.63;;
8538;SDS011;4307;53.868;11.680;2023-04-24T07:48:42;2.03;;;1.43;;
8538;SDS011;4307;53.868;11.680;2023-04-24T07:51:09;1.63;;;1.53;;
8538;SDS011;4307;53.868;11.680;2023-04-24T07:53:38;2.13;;;1.60;;
8538;SDS011;4307;53.868;11.680;2023-04-24T07:56:05;2.93;;;1.53;;
8538;SDS011;4307;53.868;11.680;2023-04-24T07:58:33;1.70;;;1.60;;
8538;SDS011;4307;53.868;11.680;2023-04-24T08:01:00;2.33;;;1.73;;
8538;SDS011;4307;53.868;11.680;2023-04-24T08:03:26;1.67;;;1.57;;
8538;SDS011;4307;53.868;11.680;2023-04-24T08:05:53;2.00;;;1.87;;
8538;SDS011;4307;53.868;11.680;2023-04-24T08:08:20;1.63;;;1.53;;
8538;SDS011;4307;53.868;11.680;2023-04-24T08:10:48;1.77;;;1.67;;
8538;SDS011;4307;53.868;11.680;2023-04-24T08:13:15;3.53;;;1.60;;
8538;SDS011;4307;53.868;11.680;2023-04-24T08:15:43;1.10;;;1.10;;
8538;SDS011;4307;53.868;11.680;2023-04-24T08:18:10;1.50;;;1.40;;
8538;SDS011;4307;53.868;11.680;2023-04-24T08:20:38;1.60;;;1.50;;
8538;SDS011;4307;53.868;11.680;2023-04-24T08:23:05;1.50;;;1.40;;
8538;SDS011;4307;53.868;11.680;2023-04-24T08:25:31;1.90;;;1.80;;
8538;SDS011;4307;53.868;11.680;2023-04-24T08:28:00;2.43;;;1.87;;
8538;SDS011;4307;53.868;11.680;2023-04-24T08:30:28;1.63;;;1.53;;
8538;SDS011;4307;53.868;11.680;2023-04-24T08:32:56;1.40;;;1.30;;
8538;SDS011;4307;53.868;11.680;2023-04-24T08:35:23;1.57;;;1.33;;
8538;SDS011;4307;53.868;11.680;2023-04-24T08:37:49;3.80;;;1.50;;
8538;SDS011;4307;53.868;11.680;2023-04-24T08:40:18;1.30;;;1.00;;
8538;SDS011;4307;53.868;11.680;2023-04-24T08:42:52;1.73;;;1.63;;
8538;SDS011;4307;53.868;11.680;2023-04-24T08:45:20;1.70;;;1.60;;
8538;SDS011;4307;53.868;11.680;2023-04-24T08:47:48;1.77;;;1.60;;
8538;SDS011;4307;53.868;11.680;2023-04-24T08:50:16;1.83;;;1.43;;
8538;SDS011;4307;53.868;11.680;2023-04-24T08:52:43;1.50;;;1.40;;
8538;SDS011;4307;53.868;11.680;2023-04-24T08:55:10;1.53;;;1.43;;
8538;SDS011;4307;53.868;11.680;2023-04-24T08:57:36;1.47;;;1.37;;
8538;SDS011;4307;53.868;11.680;2023-04-24T09:00:05;2.03;;;1.33;;
8538;SDS011;4307;53.868;11.680;2023-04-24T09:02:33;1.10;;;1.10;;
8538;SDS011;4307;53.868;11.680;2023-04-24T09:05:00;1.30;;;1.20;;
8538;SDS011;4307;53.868;11.680;2023-04-24T09:07:30;2.27;;;1.70;;
8538;SDS011;4307;53.868;11.680;2023-04-24T09:10:00;1.27;;;1.20;;
8538;SDS011;4307;53.868;11.680;2023-04-24T09:12:28;1.53;;;1.40;;
8538;SDS011;4307;53.868;11.680;2023-04-24T09:14:54;2.13;;;1.27;;
8538;SDS011;4307;53.868;11.680;2023-04-24T09:17:22;1.13;;;1.03;;
8538;SDS011;4307;53.868;11.680;2023-04-24T09:19:51;1.53;;;1.43;;
8538;SDS011;4307;53.868;11.680;2023-04-24T09:22:18;1.80;;;1.20;;
8538;SDS011;4307;53.868;11.680;2023-04-24T09:24:47;1.33;;;1.23;;
8538;SDS011;4307;53.868;11.680;2023-04-24T09:27:14;1.93;;;1.50;;
8538;SDS011;4307;53.868;11.680;2023-04-24T09:29:52;1.43;;;1.33;;
8538;SDS011;4307;53.868;11.680;2023-04-24T09:32:20;2.37;;;1.50;;
8538;SDS011;4307;53.868;11.680;2023-04-24T09:34:49;1.30;;;1.30;;
8538;SDS011;4307;53.868;11.680;2023-04-24T09:37:32;1.03;;;1.03;;
8538;SDS011;4307;53.868;11.680;2023-04-24T09:40:13;2.37;;;1.73;;
8538;SDS011;4307;53.868;11.680;2023-04-24T09:42:43;1.23;;;1.20;;
8538;SDS011;4307;53.868;11.680;2023-04-24T09:45:11;1.50;;;1.40;;
8538;SDS011;4307;53.868;11.680;2023-04-24T09:47:38;1.60;;;1.50;;
8538;SDS011;4307;53.868;11.680;2023-04-24T09:50:09;2.17;;;1.43;;
8538;SDS011;4307;53.868;11.680;2023-04-24T09:52:39;2.47;;;1.90;;
8538;SDS011;4307;53.868;11.680;2023-04-24T09:55:10;1.60;;;1.50;;
8538;SDS011;4307;53.868;11.680;2023-04-24T09:57:46;1.60;;;1.50;;
8538;SDS011;4307;53.868;11.680;2023-04-24T10:00:17;3.67;;;1.70;;
8538;SDS011;4307;53.868;11.680;2023-04-24T10:02:45;1.97;;;1.87;;
8538;SDS011;4307;53.868;11.680;2023-04-24T10:05:16;2.33;;;1.60;;
8538;SDS011;4307;53.868;11.680;2023-04-24T10:07:43;1.90;;;1.80;;
8538;SDS011;4307;53.868;11.680;2023-04-24T10:10:10;2.40;;;1.60;;
8538;SDS011;4307;53.868;11.680;2023-04-24T10:12:39;1.70;;;1.60;;
8538;SDS011;4307;53.868;11.680;2023-04-24T10:15:06;2.47;;;1.40;;
8538;SDS011;4307;53.868;11.680;2023-04-24T10:17:37;3.13;;;1.80;;
8538;SDS011;4307;53.868;11.680;2023-04-24T10:20:05;2.60;;;1.70;;
8538;SDS011;4307;53.868;11.680;2023-04-24T10:22:33;2.27;;;1.80;;
8538;SDS011;4307;53.868;11.680;2023-04-24T10:25:01;1.50;;;1.40;;
8538;SDS011;4307;53.868;11.680;2023-04-24T10:27:31;1.83;;;1.73;;
8538;SDS011;4307;53.868;11.680;2023-04-24T10:29:58;1.70;;;1.60;;
8538;SDS011;4307;53.868;11.680;2023-04-24T10:32:26;1.37;;;1.23;;
8538;SDS011;4307;53.868;11.680;2023-04-24T10:34:53;2.07;;;1.77;;
8538;SDS011;4307;53.868;11.680;2023-04-24T10:37:21;1.60;;;1.50;;
8538;SDS011;4307;53.868;11.680;2023-04-24T10:39:48;2.10;;;1.20;;
8538;SDS011;4307;53.868;11.680;2023-04-24T10:42:16;2.27;;;1.70;;
8538;SDS011;4307;53.868;11.680;2023-04-24T10:44:44;1.60;;;1.50;;
8538;SDS011;4307;53.868;11.680;2023-04-24T10:47:13;1.47;;;1.37;;
8538;SDS011;4307;53.868;11.680;2023-04-24T10:49:40;2.33;;;1.23;;
8538;SDS011;4307;53.868;11.680;2023-04-24T10:52:08;1.43;;;1.33;;
8538;SDS011;4307;53.868;11.680;2023-04-24T10:54:36;1.90;;;1.80;;
8538;SDS011;4307;53.868;11.680;2023-04-24T11:02:52;1.60;;;1.50;;
8538;SDS011;4307;53.868;11.680;2023-04-24T11:05:20;2.47;;;1.80;;
8538;SDS011;4307;53.868;11.680;2023-04-24T11:10:37;1.50;;;1.37;;
8538;SDS011;4307;53.868;11.680;2023-04-24T11:13:06;1.77;;;1.67;;
8538;SDS011;4307;53.868;11.680;2023-04-24T11:15:33;1.87;;;1.50;;
8538;SDS011;4307;53.868;11.680;2023-04-24T11:18:01;5.27;;;1.50;;
8538;SDS011;4307;53.868;11.680;2023-04-24T11:20:28;1.43;;;1.37;;
8538;SDS011;4307;53.868;11.680;2023-04-24T11:22:55;1.57;;;1.47;;
8538;SDS011;4307;53.868;11.680;2023-04-24T11:25:30;1.43;;;1.37;;
8538;SDS011;4307;53.868;11.680;2023-04-24T11:28:02;2.07;;;1.47;;
8538;SDS011;4307;53.868;11.680;2023-04-24T11:30:30;1.47;;;1.30;;
8538;SDS011;4307;53.868;11.680;2023-04-24T11:33:02;1.43;;;1.33;;
8538;SDS011;4307;53.868;11.680;2023-04-24T11:35:30;2.70;;;1.40;;
8538;SDS011;4307;53.868;11.680;2023-04-24T11:38:02;1.53;;;1.43;;
8538;SDS011;4307;53.868;11.680;2023-04-24T11:40:30;1.50;;;1.33;;
8538;SDS011;4307;53.868;11.680;2023-04-24T11:42:59;2.37;;;1.93;;
8538;SDS011;4307;53.868;11.680;2023-04-24T11:45:27;3.53;;;1.70;;
8538;SDS011;4307;53.868;11.680;2023-04-24T11:47:54;1.63;;;1.53;;
8538;SDS011;4307;53.868;11.680;2023-04-24T11:50:23;1.07;;;1.07;;
8538;SDS011;4307;53.868;11.680;2023-04-24T11:52:52;1.87;;;1.77;;
8538;SDS011;4307;53.868;11.680;2023-04-24T11:55:22;1.50;;;1.40;;
8538;SDS011;4307;53.868;11.680;2023-04-24T11:57:52;1.40;;;1.30;;
8538;SDS011;4307;53.868;11.680;2023-04-24T12:00:22;1.97;;;1.87;;
8538;SDS011;4307;53.868;11.680;2023-04-24T12:02:49;2.57;;;2.03;;
8538;SDS011;4307;53.868;11.680;2023-04-24T12:05:19;1.83;;;1.73;;
8538;SDS011;4307;53.868;11.680;2023-04-24T12:07:48;4.37;;;2.03;;
8538;SDS011;4307;53.868;11.680;2023-04-24T12:10:19;2.37;;;1.83;;
8538;SDS011;4307;53.868;11.680;2023-04-24T12:12:49;1.60;;;1.50;;
8538;SDS011;4307;53.868;11.680;2023-04-24T12:15:20;1.43;;;1.30;;
8538;SDS011;4307;53.868;11.680;2023-04-24T12:17:50;1.13;;;1.13;;
8538;SDS011;4307;53.868;11.680;2023-04-24T12:20:22;1.50;;;1.40;;
8538;SDS011;4307;53.868;11.680;2023-04-24T12:22:52;1.50;;;1.40;;
8538;SDS011;4307;53.868;11.680;2023-04-24T12:25:21;1.90;;;1.60;;
8538;SDS011;4307;53.868;11.680;2023-04-24T12:27:52;3.80;;;2.07;;
8538;SDS011;4307;53.868;11.680;2023-04-24T12:30:19;2.00;;;1.90;;
8538;SDS011;4307;53.868;11.680;2023-04-24T12:32:48;2.07;;;1.87;;
8538;SDS011;4307;53.868;11.680;2023-04-24T12:35:18;2.43;;;2.00;;
8538;SDS011;4307;53.868;11.680;2023-04-24T12:37:46;4.00;;;2.27;;
8538;SDS011;4307;53.868;11.680;2023-04-24T12:40:14;1.93;;;1.83;;
8538;SDS011;4307;53.868;11.680;2023-04-24T12:42:42;3.60;;;2.70;;
8538;SDS011;4307;53.868;11.680;2023-04-24T12:45:10;2.10;;;2.00;;
8538;SDS011;4307;53.868;11.680;2023-04-24T12:47:38;2.70;;;2.50;;
8538;SDS011;4307;53.868;11.680;2023-04-24T12:50:06;3.20;;;2.30;;
8538;SDS011;4307;53.868;11.680;2023-04-24T12:52:33;2.90;;;2.70;;
8538;SDS011;4307;53.868;11.680;2023-04-24T12:55:00;3.10;;;2.80;;
8538;SDS011;4307;53.868;11.680;2023-04-24T12:57:29;4.13;;;3.30;;
8538;SDS011;4307;53.868;11.680;2023-04-24T12:59:56;3.90;;;3.60;;
8538;SDS011;4307;53.868;11.680;2023-04-24T13:02:24;3.30;;;3.00;;
8538;SDS011;4307;53.868;11.680;2023-04-24T13:04:55;3.20;;;3.00;;
8538;SDS011;4307;53.868;11.680;2023-04-24T13:07:21;3.97;;;3.57;;
8538;SDS011;4307;53.868;11.680;2023-04-24T13:09:49;3.70;;;3.40;;
8538;SDS011;4307;53.868;11.680;2023-04-24T13:12:16;4.03;;;3.67;;
8538;SDS011;4307;53.868;11.680;2023-04-24T13:14:45;4.20;;;3.80;;
8538;SDS011;4307;53.868;11.680;2023-04-24T13:17:12;3.87;;;3.53;;
8538;SDS011;4307;53.868;11.680;2023-04-24T13:19:39;4.00;;;3.60;;
8538;SDS011;4307;53.868;11.680;2023-04-24T13:22:08;4.20;;;3.80;;
8538;SDS011;4307;53.868;11.680;2023-04-24T13:24:36;4.63;;;4.20;;
8538;SDS011;4307;53.868;11.680;2023-04-24T13:27:04;4.53;;;4.13;;
8538;SDS011;4307;53.868;11.680;2023-04-24T13:29:31;3.87;;;3.57;;
8538;SDS011;4307;53.868;11.680;2023-04-24T13:31:59;3.90;;;3.53;;
8538;SDS011;4307;53.868;11.680;2023-04-24T13:34:26;3.93;;;3.20;;
8538;SDS011;4307;53.868;11.680;2023-04-24T13:36:53;3.67;;;3.37;;
8538;SDS011;4307;53.868;11.680;2023-04-24T13:39:21;3.90;;;3.57;;
8538;SDS011;4307;53.868;11.680;2023-04-24T13:41:48;4.43;;;3.40;;
8538;SDS011;4307;53.868;11.680;2023-04-24T13:44:15;4.20;;;3.80;;
8538;SDS011;4307;53.868;11.680;2023-04-24T13:46:43;4.13;;;3.67;;
8538;SDS011;4307;53.868;11.680;2023-04-24T13:49:12;4.30;;;3.90;;
8538;SDS011;4307;53.868;11.680;2023-04-24T13:51:40;4.07;;;3.60;;
8538;SDS011;4307;53.868;11.680;2023-04-24T13:54:07;4.17;;;3.77;;
8538;SDS011;4307;53.868;11.680;2023-04-24T13:56:34;3.93;;;3.63;;
8538;SDS011;4307;53.868;11.680;2023-04-24T13:59:01;4.27;;;3.87;;
8538;SDS011;4307;53.868;11.680;2023-04-24T14:01:28;4.20;;;3.80;;
8538;SDS011;4307;53.868;11.680;2023-04-24T14:03:55;4.40;;;4.00;;
8538;SDS011;4307;53.868;11.680;2023-04-24T14:06:23;4.50;;;4.10;;
8538;SDS011;4307;53.868;11.680;2023-04-24T14:08:50;4.70;;;4.20;;
8538;SDS011;4307;53.868;11.680;2023-04-24T14:11:17;4.30;;;3.90;;
8538;SDS011;4307;53.868;11.680;2023-04-24T14:13:45;4.33;;;3.93;;
8538;SDS011;4307;53.868;11.680;2023-04-24T14:16:12;4.03;;;3.60;;
8538;SDS011;4307;53.868;11.680;2023-04-24T14:18:39;4.10;;;3.70;;
8538;SDS011;4307;53.868;11.680;2023-04-24T14:21:06;6.10;;;4.10;;
8538;SDS011;4307;53.868;11.680;2023-04-24T14:23:34;4.40;;;4.00;;
8538;SDS011;4307;53.868;11.680;2023-04-24T14:26:00;4.30;;;3.87;;
8538;SDS011;4307;53.868;11.680;2023-04-24T14:28:27;4.77;;;4.27;;
8538;SDS011;4307;53.868;11.680;2023-04-24T14:30:54;5.10;;;4.57;;
8538;SDS011;4307;53.868;11.680;2023-04-24T14:33:20;5.00;;;4.00;;
8538;SDS011;4307;53.868;11.680;2023-04-24T14:35:47;4.30;;;3.90;;
8538;SDS011;4307;53.868;11.680;2023-04-24T14:38:14;4.60;;;4.00;;
8538;SDS011;4307;53.868;11.680;2023-04-24T14:40:42;3.90;;;3.50;;
8538;SDS011;4307;53.868;11.680;2023-04-24T14:43:09;3.33;;;2.43;;
8538;SDS011;4307;53.868;11.680;2023-04-24T14:45:36;2.63;;;2.13;;
8538;SDS011;4307;53.868;11.680;2023-04-24T14:48:03;2.60;;;2.40;;
8538;SDS011;4307;53.868;11.680;2023-04-24T14:50:30;3.20;;;2.93;;
8538;SDS011;4307;53.868;11.680;2023-04-24T14:52:56;2.80;;;2.60;;
8538;SDS011;4307;53.868;11.680;2023-04-24T14:55:23;4.03;;;2.93;;
8538;SDS011;4307;53.868;11.680;2023-04-24T14:57:52;3.03;;;2.83;;
8538;SDS011;4307;53.868;11.680;2023-04-24T15:00:19;2.80;;;2.60;;
8538;SDS011;4307;53.868;11.680;2023-04-24T15:02:48;2.60;;;2.50;;
8538;SDS011;4307;53.868;11.680;2023-04-24T15:05:14;6.90;;;2.80;;
8538;SDS011;4307;53.868;11.680;2023-04-24T15:07:41;3.50;;;3.20;;
8538;SDS011;4307;53.868;11.680;2023-04-24T15:10:08;2.90;;;2.70;;